CheckWX is a tool to help pilots better visualize weather data.  It is not intended as a substitute for an official pre-flight weather briefing.

19:42:37 UTC

YPWR METAR
Woomera Airfield Airport
Woomera, Australia
Current

43 mins ago

YPWR 241900Z AUTO 17011KT 9999 // NCD 18/12 Q1014
Observed
Jan-24 @ 19:00 UTC
Wind
  • 170° at 11 KTS
Visibility
10,000+ meters
Flight Rules
VFR
Cloud Levels
  • Clear skies
Temperature
18°C / 64°F
Dewpoint
12°C / 54°F
Humidity
68%
Altimeter
29.94" Hg
Pressure
1013.92 hPa
Previous

1 hour ago

YPWR 241830Z AUTO 16010KT 9999 // NCD 19/12 Q1014 RF00.0/000.0
Observed
Jan-24 @ 18:30 UTC
Wind
  • 160° at 10 KTS
Visibility
10,000+ meters
Flight Rules
VFR
Cloud Levels
  • Clear skies
Temperature
19°C / 66°F
Dewpoint
12°C / 54°F
Humidity
64%
Altimeter
29.94" Hg
Pressure
1013.92 hPa
Previous

2 hours ago

YPWR 241800Z AUTO 16012KT 9999 // NCD 19/11 Q1014
Observed
Jan-24 @ 18:00 UTC
Wind
  • 160° at 12 KTS
Visibility
10,000+ meters
Flight Rules
VFR
Cloud Levels
  • Clear skies
Temperature
19°C / 66°F
Dewpoint
11°C / 52°F
Humidity
60%
Altimeter
29.94" Hg
Pressure
1013.92 hPa